sensor_id;sensor_type;location;lat;lon;timestamp;temperature;humidity
25058;DHT22;13057;50.978;11.034;2022-12-07T00:01:17;4.10;99.90
25058;DHT22;13057;50.978;11.034;2022-12-07T00:03:46;4.00;99.90
25058;DHT22;13057;50.978;11.034;2022-12-07T00:06:14;4.00;99.90
25058;DHT22;13057;50.978;11.034;2022-12-07T00:08:42;4.00;99.90
25058;DHT22;13057;50.978;11.034;2022-12-07T00:11:13;3.90;99.90
25058;DHT22;13057;50.978;11.034;2022-12-07T00:13:40;3.90;99.90
25058;DHT22;13057;50.978;11.034;2022-12-07T00:16:10;3.90;99.90
25058;DHT22;13057;50.978;11.034;2022-12-07T00:18:37;3.90;99.90
25058;DHT22;13057;50.978;11.034;2022-12-07T00:21:07;3.90;99.90
25058;DHT22;13057;50.978;11.034;2022-12-07T00:23:34;3.90;99.90
25058;DHT22;13057;50.978;11.034;2022-12-07T00:26:05;3.90;99.90
25058;DHT22;13057;50.978;11.034;2022-12-07T00:28:31;3.90;99.90
25058;DHT22;13057;50.978;11.034;2022-12-07T00:31:02;3.90;99.90
25058;DHT22;13057;50.978;11.034;2022-12-07T00:33:27;3.90;99.90
25058;DHT22;13057;50.978;11.034;2022-12-07T00:35:56;3.80;99.90
25058;DHT22;13057;50.978;11.034;2022-12-07T00:38:22;3.80;99.90
25058;DHT22;13057;50.978;11.034;2022-12-07T00:40:57;3.80;99.90
25058;DHT22;13057;50.978;11.034;2022-12-07T00:43:24;3.80;99.90
25058;DHT22;13057;50.978;11.034;2022-12-07T00:45:50;3.80;99.90
25058;DHT22;13057;50.978;11.034;2022-12-07T00:48:16;3.80;99.90
25058;DHT22;13057;50.978;11.034;2022-12-07T00:50:43;3.90;99.90
25058;DHT22;13057;50.978;11.034;2022-12-07T00:53:09;3.90;99.90
25058;DHT22;13057;50.978;11.034;2022-12-07T00:55:38;3.90;99.90
25058;DHT22;13057;50.978;11.034;2022-12-07T00:58:05;4.00;99.90
25058;DHT22;13057;50.978;11.034;2022-12-07T01:00:31;4.00;99.90
25058;DHT22;13057;50.978;11.034;2022-12-07T01:02:58;4.00;99.90
25058;DHT22;13057;50.978;11.034;2022-12-07T01:05:24;4.00;99.90
25058;DHT22;13057;50.978;11.034;2022-12-07T01:07:50;4.00;99.90
25058;DHT22;13057;50.978;11.034;2022-12-07T01:10:16;4.00;99.90
25058;DHT22;13057;50.978;11.034;2022-12-07T01:12:42;4.00;99.90
25058;DHT22;13057;50.978;11.034;2022-12-07T01:15:09;3.90;99.90
25058;DHT22;13057;50.978;11.034;2022-12-07T01:17:35;3.90;99.90
25058;DHT22;13057;50.978;11.034;2022-12-07T01:20:01;3.90;99.90
25058;DHT22;13057;50.978;11.034;2022-12-07T01:22:27;3.90;99.90
25058;DHT22;13057;50.978;11.034;2022-12-07T01:24:53;3.90;99.90
25058;DHT22;13057;50.978;11.034;2022-12-07T01:27:19;3.90;99.90
25058;DHT22;13057;50.978;11.034;2022-12-07T01:29:46;4.00;99.90
25058;DHT22;13057;50.978;11.034;2022-12-07T01:32:13;3.90;99.90
25058;DHT22;13057;50.978;11.034;2022-12-07T01:34:40;3.90;99.90
25058;DHT22;13057;50.978;11.034;2022-12-07T01:37:06;4.00;99.90
25058;DHT22;13057;50.978;11.034;2022-12-07T01:39:31;4.00;99.90
25058;DHT22;13057;50.978;11.034;2022-12-07T01:41:57;4.00;99.90
25058;DHT22;13057;50.978;11.034;2022-12-07T01:44:26;4.00;99.90
25058;DHT22;13057;50.978;11.034;2022-12-07T01:46:55;4.00;99.90
25058;DHT22;13057;50.978;11.034;2022-12-07T01:49:31;4.00;99.90
25058;DHT22;13057;50.978;11.034;2022-12-07T01:52:13;4.10;99.90
25058;DHT22;13057;50.978;11.034;2022-12-07T01:54:44;4.10;99.90
25058;DHT22;13057;50.978;11.034;2022-12-07T01:57:14;4.10;99.90
25058;DHT22;13057;50.978;11.034;2022-12-07T01:59:53;4.10;99.90
25058;DHT22;13057;50.978;11.034;2022-12-07T02:02:26;4.10;99.90
25058;DHT22;13057;50.978;11.034;2022-12-07T02:04:54;4.10;99.90
25058;DHT22;13057;50.978;11.034;2022-12-07T02:07:23;4.20;99.90
25058;DHT22;13057;50.978;11.034;2022-12-07T02:09:49;4.20;99.90
25058;DHT22;13057;50.978;11.034;2022-12-07T02:12:16;4.20;99.90
25058;DHT22;13057;50.978;11.034;2022-12-07T02:14:47;4.20;99.90
25058;DHT22;13057;50.978;11.034;2022-12-07T02:17:26;4.20;99.90
25058;DHT22;13057;50.978;11.034;2022-12-07T02:20:11;4.20;99.90
25058;DHT22;13057;50.978;11.034;2022-12-07T02:23:00;4.20;99.90
25058;DHT22;13057;50.978;11.034;2022-12-07T02:28:35;4.30;99.90
25058;DHT22;13057;50.978;11.034;2022-12-07T02:31:08;4.30;99.90
25058;DHT22;13057;50.978;11.034;2022-12-07T02:33:44;4.40;99.90
25058;DHT22;13057;50.978;11.034;2022-12-07T02:36:16;4.40;99.90
25058;DHT22;13057;50.978;11.034;2022-12-07T02:38:52;4.40;99.90
25058;DHT22;13057;50.978;11.034;2022-12-07T02:41:26;4.30;99.90
25058;DHT22;13057;50.978;11.034;2022-12-07T02:43:56;4.30;99.90
25058;DHT22;13057;50.978;11.034;2022-12-07T02:46:31;4.40;99.90
25058;DHT22;13057;50.978;11.034;2022-12-07T02:48:59;4.40;99.90
25058;DHT22;13057;50.978;11.034;2022-12-07T02:51:29;4.40;99.90
25058;DHT22;13057;50.978;11.034;2022-12-07T02:53:55;4.40;99.90
25058;DHT22;13057;50.978;11.034;2022-12-07T02:59:15;4.30;99.90
25058;DHT22;13057;50.978;11.034;2022-12-07T03:04:42;4.40;99.90
25058;DHT22;13057;50.978;11.034;2022-12-07T03:07:31;4.40;99.90
25058;DHT22;13057;50.978;11.034;2022-12-07T03:10:14;4.30;99.90
25058;DHT22;13057;50.978;11.034;2022-12-07T03:12:54;4.40;99.90
25058;DHT22;13057;50.978;11.034;2022-12-07T03:15:31;4.40;99.90
25058;DHT22;13057;50.978;11.034;2022-12-07T03:17:59;4.30;99.90
25058;DHT22;13057;50.978;11.034;2022-12-07T03:20:27;4.40;99.90
25058;DHT22;13057;50.978;11.034;2022-12-07T03:22:55;4.40;99.90
25058;DHT22;13057;50.978;11.034;2022-12-07T03:25:22;4.40;99.90
25058;DHT22;13057;50.978;11.034;2022-12-07T03:27:55;4.40;99.90
25058;DHT22;13057;50.978;11.034;2022-12-07T03:30:27;4.50;99.90
25058;DHT22;13057;50.978;11.034;2022-12-07T03:33:07;4.50;99.90
25058;DHT22;13057;50.978;11.034;2022-12-07T03:35:42;4.50;99.90
25058;DHT22;13057;50.978;11.034;2022-12-07T03:38:23;4.50;99.90
25058;DHT22;13057;50.978;11.034;2022-12-07T03:40:59;4.60;99.90
25058;DHT22;13057;50.978;11.034;2022-12-07T03:43:28;4.60;99.90
25058;DHT22;13057;50.978;11.034;2022-12-07T03:46:14;4.60;99.90
25058;DHT22;13057;50.978;11.034;2022-12-07T03:48:52;4.60;99.90
25058;DHT22;13057;50.978;11.034;2022-12-07T03:51:28;4.60;99.90
25058;DHT22;13057;50.978;11.034;2022-12-07T03:54:02;4.60;99.90
25058;DHT22;13057;50.978;11.034;2022-12-07T03:56:31;4.60;99.90
25058;DHT22;13057;50.978;11.034;2022-12-07T03:58:58;4.50;99.90
25058;DHT22;13057;50.978;11.034;2022-12-07T04:01:25;4.60;99.90
25058;DHT22;13057;50.978;11.034;2022-12-07T04:03:52;4.60;99.90
25058;DHT22;13057;50.978;11.034;2022-12-07T04:06:19;4.60;99.90
25058;DHT22;13057;50.978;11.034;2022-12-07T04:08:45;4.60;99.90
25058;DHT22;13057;50.978;11.034;2022-12-07T04:11:11;4.60;99.90
25058;DHT22;13057;50.978;11.034;2022-12-07T04:13:37;4.60;99.90
25058;DHT22;13057;50.978;11.034;2022-12-07T04:16:23;4.60;99.90
25058;DHT22;13057;50.978;11.034;2022-12-07T04:18:50;4.60;99.90
25058;DHT22;13057;50.978;11.034;2022-12-07T04:21:17;4.60;99.90
25058;DHT22;13057;50.978;11.034;2022-12-07T04:23:43;4.60;99.90
25058;DHT22;13057;50.978;11.034;2022-12-07T04:26:09;4.60;99.90
25058;DHT22;13057;50.978;11.034;2022-12-07T04:28:34;4.60;99.90
25058;DHT22;13057;50.978;11.034;2022-12-07T04:31:01;4.60;99.90
25058;DHT22;13057;50.978;11.034;2022-12-07T04:33:26;4.60;99.90
25058;DHT22;13057;50.978;11.034;2022-12-07T04:35:53;4.60;99.90
25058;DHT22;13057;50.978;11.034;2022-12-07T04:38:20;4.70;99.90
25058;DHT22;13057;50.978;11.034;2022-12-07T04:40:46;4.70;99.90
25058;DHT22;13057;50.978;11.034;2022-12-07T04:43:12;4.70;99.90
25058;DHT22;13057;50.978;11.034;2022-12-07T04:45:38;4.70;99.90
25058;DHT22;13057;50.978;11.034;2022-12-07T04:48:03;4.80;99.90
25058;DHT22;13057;50.978;11.034;2022-12-07T04:50:30;4.90;99.90
25058;DHT22;13057;50.978;11.034;2022-12-07T04:52:56;5.00;99.90
25058;DHT22;13057;50.978;11.034;2022-12-07T04:55:23;4.90;99.90
25058;DHT22;13057;50.978;11.034;2022-12-07T04:57:50;4.90;99.90
25058;DHT22;13057;50.978;11.034;2022-12-07T05:00:16;4.80;99.90
25058;DHT22;13057;50.978;11.034;2022-12-07T05:02:42;4.90;99.90
25058;DHT22;13057;50.978;11.034;2022-12-07T05:05:08;4.90;99.90
25058;DHT22;13057;50.978;11.034;2022-12-07T05:07:34;4.90;99.90
25058;DHT22;13057;50.978;11.034;2022-12-07T05:09:59;4.90;99.90
25058;DHT22;13057;50.978;11.034;2022-12-07T05:12:26;4.90;99.90
25058;DHT22;13057;50.978;11.034;2022-12-07T05:14:53;4.90;99.90
25058;DHT22;13057;50.978;11.034;2022-12-07T05:17:20;5.00;99.90
25058;DHT22;13057;50.978;11.034;2022-12-07T05:19:46;4.90;99.90
25058;DHT22;13057;50.978;11.034;2022-12-07T05:22:26;5.00;99.90
25058;DHT22;13057;50.978;11.034;2022-12-07T05:24:55;5.00;99.90
25058;DHT22;13057;50.978;11.034;2022-12-07T05:27:22;5.00;99.90
25058;DHT22;13057;50.978;11.034;2022-12-07T05:29:50;5.00;99.90
25058;DHT22;13057;50.978;11.034;2022-12-07T05:32:18;5.10;99.90
25058;DHT22;13057;50.978;11.034;2022-12-07T05:34:44;5.10;99.90
25058;DHT22;13057;50.978;11.034;2022-12-07T05:37:10;5.10;99.90
25058;DHT22;13057;50.978;11.034;2022-12-07T05:39:35;5.20;99.90
25058;DHT22;13057;50.978;11.034;2022-12-07T05:42:03;5.20;99.90
25058;DHT22;13057;50.978;11.034;2022-12-07T05:44:39;5.30;99.90
25058;DHT22;13057;50.978;11.034;2022-12-07T05:47:05;5.40;99.90
25058;DHT22;13057;50.978;11.034;2022-12-07T05:49:31;5.50;99.90
25058;DHT22;13057;50.978;11.034;2022-12-07T05:51:58;5.40;99.90
25058;DHT22;13057;50.978;11.034;2022-12-07T05:54:25;5.40;99.90
25058;DHT22;13057;50.978;11.034;2022-12-07T05:56:51;5.50;99.90
25058;DHT22;13057;50.978;11.034;2022-12-07T05:59:17;5.50;99.90
25058;DHT22;13057;50.978;11.034;2022-12-07T06:01:56;5.50;99.90
25058;DHT22;13057;50.978;11.034;2022-12-07T06:04:25;5.50;99.90
25058;DHT22;13057;50.978;11.034;2022-12-07T06:06:51;5.50;99.90
25058;DHT22;13057;50.978;11.034;2022-12-07T06:09:18;5.50;99.90
25058;DHT22;13057;50.978;11.034;2022-12-07T06:11:44;5.50;99.90
25058;DHT22;13057;50.978;11.034;2022-12-07T06:14:22;5.50;99.90
25058;DHT22;13057;50.978;11.034;2022-12-07T06:16:49;5.50;99.90
25058;DHT22;13057;50.978;11.034;2022-12-07T06:19:15;5.40;99.90
25058;DHT22;13057;50.978;11.034;2022-12-07T06:21:41;5.40;99.90
25058;DHT22;13057;50.978;11.034;2022-12-07T06:24:11;5.40;99.90
25058;DHT22;13057;50.978;11.034;2022-12-07T06:26:38;5.40;99.90
25058;DHT22;13057;50.978;11.034;2022-12-07T06:29:04;5.30;99.90
25058;DHT22;13057;50.978;11.034;2022-12-07T06:31:32;5.20;99.90
25058;DHT22;13057;50.978;11.034;2022-12-07T06:34:02;5.20;99.90
25058;DHT22;13057;50.978;11.034;2022-12-07T06:36:29;5.20;99.90
25058;DHT22;13057;50.978;11.034;2022-12-07T06:38:56;5.10;99.90
25058;DHT22;13057;50.978;11.034;2022-12-07T06:41:22;5.20;99.90
25058;DHT22;13057;50.978;11.034;2022-12-07T06:43:48;5.10;99.90
25058;DHT22;13057;50.978;11.034;2022-12-07T06:46:15;5.00;99.90
25058;DHT22;13057;50.978;11.034;2022-12-07T06:48:42;5.00;99.90
25058;DHT22;13057;50.978;11.034;2022-12-07T06:51:09;5.10;99.90
25058;DHT22;13057;50.978;11.034;2022-12-07T06:53:36;5.10;99.90
25058;DHT22;13057;50.978;11.034;2022-12-07T06:56:03;5.10;99.90
25058;DHT22;13057;50.978;11.034;2022-12-07T06:58:31;5.10;99.90
25058;DHT22;13057;50.978;11.034;2022-12-07T07:00:58;5.10;99.90
25058;DHT22;13057;50.978;11.034;2022-12-07T07:03:24;5.10;99.90
25058;DHT22;13057;50.978;11.034;2022-12-07T07:05:50;5.10;99.90
25058;DHT22;13057;50.978;11.034;2022-12-07T07:08:29;5.10;99.90
25058;DHT22;13057;50.978;11.034;2022-12-07T07:10:59;5.10;99.90
25058;DHT22;13057;50.978;11.034;2022-12-07T07:13:25;5.20;99.90
25058;DHT22;13057;50.978;11.034;2022-12-07T07:15:51;5.20;99.90
25058;DHT22;13057;50.978;11.034;2022-12-07T07:18:16;5.10;99.90
25058;DHT22;13057;50.978;11.034;2022-12-07T07:20:42;5.10;99.90
25058;DHT22;13057;50.978;11.034;2022-12-07T07:23:08;5.00;99.90
25058;DHT22;13057;50.978;11.034;2022-12-07T07:25:36;5.00;99.90
25058;DHT22;13057;50.978;11.034;2022-12-07T07:28:03;5.00;99.90
25058;DHT22;13057;50.978;11.034;2022-12-07T07:30:41;5.00;99.90
25058;DHT22;13057;50.978;11.034;2022-12-07T07:33:07;5.00;99.90
25058;DHT22;13057;50.978;11.034;2022-12-07T07:35:34;5.00;99.90
25058;DHT22;13057;50.978;11.034;2022-12-07T07:38:02;5.00;99.90
25058;DHT22;13057;50.978;11.034;2022-12-07T07:40:30;5.00;99.90
25058;DHT22;13057;50.978;11.034;2022-12-07T07:42:56;5.10;99.90
25058;DHT22;13057;50.978;11.034;2022-12-07T07:45:25;5.10;99.90
25058;DHT22;13057;50.978;11.034;2022-12-07T07:47:52;5.20;99.90
25058;DHT22;13057;50.978;11.034;2022-12-07T07:50:18;5.20;99.90
25058;DHT22;13057;50.978;11.034;2022-12-07T07:52:45;5.20;99.90
25058;DHT22;13057;50.978;11.034;2022-12-07T07:55:11;5.20;99.90
25058;DHT22;13057;50.978;11.034;2022-12-07T07:57:40;5.20;99.90
25058;DHT22;13057;50.978;11.034;2022-12-07T08:00:11;5.20;99.90
25058;DHT22;13057;50.978;11.034;2022-12-07T08:02:38;5.30;99.90
25058;DHT22;13057;50.978;11.034;2022-12-07T08:05:11;5.50;99.90
25058;DHT22;13057;50.978;11.034;2022-12-07T08:07:39;5.60;99.90
25058;DHT22;13057;50.978;11.034;2022-12-07T08:10:07;5.50;99.90
25058;DHT22;13057;50.978;11.034;2022-12-07T08:12:38;5.60;99.90
25058;DHT22;13057;50.978;11.034;2022-12-07T08:15:25;5.70;99.90
25058;DHT22;13057;50.978;11.034;2022-12-07T08:17:51;5.80;99.90
25058;DHT22;13057;50.978;11.034;2022-12-07T08:20:17;6.00;99.90
25058;DHT22;13057;50.978;11.034;2022-12-07T08:22:53;6.10;99.90
25058;DHT22;13057;50.978;11.034;2022-12-07T08:25:21;6.10;99.90
25058;DHT22;13057;50.978;11.034;2022-12-07T08:27:49;6.20;99.90
25058;DHT22;13057;50.978;11.034;2022-12-07T08:30:15;6.30;99.90
25058;DHT22;13057;50.978;11.034;2022-12-07T08:32:40;6.20;99.90
25058;DHT22;13057;50.978;11.034;2022-12-07T08:35:08;6.20;99.90
25058;DHT22;13057;50.978;11.034;2022-12-07T08:37:38;6.30;99.90
25058;DHT22;13057;50.978;11.034;2022-12-07T08:40:06;6.30;99.90
25058;DHT22;13057;50.978;11.034;2022-12-07T08:42:34;6.40;99.90
25058;DHT22;13057;50.978;11.034;2022-12-07T08:45:07;6.40;99.90
25058;DHT22;13057;50.978;11.034;2022-12-07T08:47:37;6.40;99.90
25058;DHT22;13057;50.978;11.034;2022-12-07T08:50:07;6.50;99.90
25058;DHT22;13057;50.978;11.034;2022-12-07T08:52:35;6.60;99.90
25058;DHT22;13057;50.978;11.034;2022-12-07T08:55:03;6.60;99.90
25058;DHT22;13057;50.978;11.034;2022-12-07T08:57:30;6.60;99.90
25058;DHT22;13057;50.978;11.034;2022-12-07T08:59:58;6.70;99.90
25058;DHT22;13057;50.978;11.034;2022-12-07T09:02:24;6.80;99.90
25058;DHT22;13057;50.978;11.034;2022-12-07T09:04:50;6.80;99.90
25058;DHT22;13057;50.978;11.034;2022-12-07T09:07:16;6.80;99.90
25058;DHT22;13057;50.978;11.034;2022-12-07T09:09:42;6.80;99.90
25058;DHT22;13057;50.978;11.034;2022-12-07T09:12:09;6.70;99.90
25058;DHT22;13057;50.978;11.034;2022-12-07T09:14:36;6.60;99.90
25058;DHT22;13057;50.978;11.034;2022-12-07T09:17:07;6.60;99.90
25058;DHT22;13057;50.978;11.034;2022-12-07T09:19:34;6.60;99.90
25058;DHT22;13057;50.978;11.034;2022-12-07T09:22:00;6.70;99.90
25058;DHT22;13057;50.978;11.034;2022-12-07T09:24:26;6.70;99.90
25058;DHT22;13057;50.978;11.034;2022-12-07T09:26:52;6.60;99.90
25058;DHT22;13057;50.978;11.034;2022-12-07T09:29:18;6.60;99.90
25058;DHT22;13057;50.978;11.034;2022-12-07T09:31:45;6.70;99.90
25058;DHT22;13057;50.978;11.034;2022-12-07T09:34:29;6.70;99.90
25058;DHT22;13057;50.978;11.034;2022-12-07T09:36:55;6.70;99.90
25058;DHT22;13057;50.978;11.034;2022-12-07T09:39:21;6.70;99.90
25058;DHT22;13057;50.978;11.034;2022-12-07T09:41:48;6.70;99.90
25058;DHT22;13057;50.978;11.034;2022-12-07T09:44:20;6.70;99.90
25058;DHT22;13057;50.978;11.034;2022-12-07T09:46:47;6.70;99.90
25058;DHT22;13057;50.978;11.034;2022-12-07T09:49:18;6.70;99.90
25058;DHT22;13057;50.978;11.034;2022-12-07T09:51:45;6.70;99.90
25058;DHT22;13057;50.978;11.034;2022-12-07T09:54:14;6.80;99.90
25058;DHT22;13057;50.978;11.034;2022-12-07T09:56:43;6.70;99.90
25058;DHT22;13057;50.978;11.034;2022-12-07T09:59:16;6.70;99.90
25058;DHT22;13057;50.978;11.034;2022-12-07T10:01:46;6.90;99.90
25058;DHT22;13057;50.978;11.034;2022-12-07T10:04:19;6.90;99.90
25058;DHT22;13057;50.978;11.034;2022-12-07T10:06:46;7.00;99.90
25058;DHT22;13057;50.978;11.034;2022-12-07T10:09:16;7.10;99.90
25058;DHT22;13057;50.978;11.034;2022-12-07T10:12:00;7.10;99.90
25058;DHT22;13057;50.978;11.034;2022-12-07T10:14:28;7.30;99.90
25058;DHT22;13057;50.978;11.034;2022-12-07T10:16:55;7.40;99.90
25058;DHT22;13057;50.978;11.034;2022-12-07T10:19:28;7.40;99.90
25058;DHT22;13057;50.978;11.034;2022-12-07T10:22:02;7.50;99.90
25058;DHT22;13057;50.978;11.034;2022-12-07T10:24:29;7.40;99.90
25058;DHT22;13057;50.978;11.034;2022-12-07T10:26:55;7.30;99.90
25058;DHT22;13057;50.978;11.034;2022-12-07T10:29:36;7.20;99.90
25058;DHT22;13057;50.978;11.034;2022-12-07T10:32:05;7.20;99.90
25058;DHT22;13057;50.978;11.034;2022-12-07T10:34:35;7.20;99.90
25058;DHT22;13057;50.978;11.034;2022-12-07T10:37:16;7.20;99.90
25058;DHT22;13057;50.978;11.034;2022-12-07T10:39:52;7.20;99.90
25058;DHT22;13057;50.978;11.034;2022-12-07T10:42:22;7.10;99.90
25058;DHT22;13057;50.978;11.034;2022-12-07T10:44:49;7.00;99.90
25058;DHT22;13057;50.978;11.034;2022-12-07T10:47:39;7.00;99.90
25058;DHT22;13057;50.978;11.034;2022-12-07T10:50:14;7.00;99.90
25058;DHT22;13057;50.978;11.034;2022-12-07T10:52:56;7.10;99.90
25058;DHT22;13057;50.978;11.034;2022-12-07T10:55:47;7.10;99.90
25058;DHT22;13057;50.978;11.034;2022-12-07T10:58:31;7.20;99.90
25058;DHT22;13057;50.978;11.034;2022-12-07T11:01:24;7.10;99.90
25058;DHT22;13057;50.978;11.034;2022-12-07T11:04:15;7.20;99.90
25058;DHT22;13057;50.978;11.034;2022-12-07T11:12:33;7.30;99.90
25058;DHT22;13057;50.978;11.034;2022-12-07T11:15:17;7.40;99.90
25058;DHT22;13057;50.978;11.034;2022-12-07T11:17:56;7.60;99.90
25058;DHT22;13057;50.978;11.034;2022-12-07T11:20:38;7.80;99.90
25058;DHT22;13057;50.978;11.034;2022-12-07T11:25:57;7.70;99.90
25058;DHT22;13057;50.978;11.034;2022-12-07T11:28:43;7.90;99.90
25058;DHT22;13057;50.978;11.034;2022-12-07T11:31:29;8.00;99.90
25058;DHT22;13057;50.978;11.034;2022-12-07T11:34:06;7.90;99.90
25058;DHT22;13057;50.978;11.034;2022-12-07T11:36:40;7.80;99.90
25058;DHT22;13057;50.978;11.034;2022-12-07T11:39:31;8.10;99.90
25058;DHT22;13057;50.978;11.034;2022-12-07T11:42:08;8.00;99.90
25058;DHT22;13057;50.978;11.034;2022-12-07T11:44:55;7.90;99.90
25058;DHT22;13057;50.978;11.034;2022-12-07T11:47:40;7.90;99.90
25058;DHT22;13057;50.978;11.034;2022-12-07T11:50:27;7.80;99.90
25058;DHT22;13057;50.978;11.034;2022-12-07T11:53:11;7.70;99.90
25058;DHT22;13057;50.978;11.034;2022-12-07T11:55:44;7.70;99.90
25058;DHT22;13057;50.978;11.034;2022-12-07T12:01:22;7.60;99.90
25058;DHT22;13057;50.978;11.034;2022-12-07T12:03:56;7.60;99.90
25058;DHT22;13057;50.978;11.034;2022-12-07T12:06:24;7.60;99.90
25058;DHT22;13057;50.978;11.034;2022-12-07T12:09:04;7.60;99.90
25058;DHT22;13057;50.978;11.034;2022-12-07T12:11:52;7.50;99.90
25058;DHT22;13057;50.978;11.034;2022-12-07T12:14:32;7.50;99.90
25058;DHT22;13057;50.978;11.034;2022-12-07T12:17:25;7.60;99.90
25058;DHT22;13057;50.978;11.034;2022-12-07T12:20:23;7.50;99.90
25058;DHT22;13057;50.978;11.034;2022-12-07T12:22:59;7.40;99.90
25058;DHT22;13057;50.978;11.034;2022-12-07T12:25:31;7.20;99.90
25058;DHT22;13057;50.978;11.034;2022-12-07T12:28:02;7.10;99.90
25058;DHT22;13057;50.978;11.034;2022-12-07T12:30:36;7.10;99.90
25058;DHT22;13057;50.978;11.034;2022-12-07T12:33:19;7.10;99.90
25058;DHT22;13057;50.978;11.034;2022-12-07T12:36:17;7.10;99.90
25058;DHT22;13057;50.978;11.034;2022-12-07T12:39:07;7.20;99.90
25058;DHT22;13057;50.978;11.034;2022-12-07T12:41:53;7.20;99.90
25058;DHT22;13057;50.978;11.034;2022-12-07T12:44:39;7.20;99.90
25058;DHT22;13057;50.978;11.034;2022-12-07T12:50:16;7.30;99.90
25058;DHT22;13057;50.978;11.034;2022-12-07T12:52:50;7.30;99.90
25058;DHT22;13057;50.978;11.034;2022-12-07T12:55:18;7.20;99.90
25058;DHT22;13057;50.978;11.034;2022-12-07T12:57:48;7.10;99.90
25058;DHT22;13057;50.978;11.034;2022-12-07T13:00:35;7.10;99.90
25058;DHT22;13057;50.978;11.034;2022-12-07T13:03:02;7.00;99.90
25058;DHT22;13057;50.978;11.034;2022-12-07T13:05:30;7.00;99.90
25058;DHT22;13057;50.978;11.034;2022-12-07T13:08:02;7.00;99.90
25058;DHT22;13057;50.978;11.034;2022-12-07T13:10:38;7.00;99.90
25058;DHT22;13057;50.978;11.034;2022-12-07T13:13:28;6.90;99.90
25058;DHT22;13057;50.978;11.034;2022-12-07T13:22:42;6.90;99.90
25058;DHT22;13057;50.978;11.034;2022-12-07T13:25:26;6.90;99.90
25058;DHT22;13057;50.978;11.034;2022-12-07T13:28:13;6.90;99.90
25058;DHT22;13057;50.978;11.034;2022-12-07T13:30:46;7.00;99.90
25058;DHT22;13057;50.978;11.034;2022-12-07T13:33:14;6.90;99.90
25058;DHT22;13057;50.978;11.034;2022-12-07T13:35:41;6.90;99.90
25058;DHT22;13057;50.978;11.034;2022-12-07T13:38:25;6.90;99.90
25058;DHT22;13057;50.978;11.034;2022-12-07T13:41:13;6.80;99.90
25058;DHT22;13057;50.978;11.034;2022-12-07T13:43:44;6.80;99.90
25058;DHT22;13057;50.978;11.034;2022-12-07T13:46:11;6.80;99.90
25058;DHT22;13057;50.978;11.034;2022-12-07T13:48:43;6.90;99.90
25058;DHT22;13057;50.978;11.034;2022-12-07T13:51:18;7.00;99.90
25058;DHT22;13057;50.978;11.034;2022-12-07T13:53:48;7.00;99.90
25058;DHT22;13057;50.978;11.034;2022-12-07T13:56:16;6.90;99.90
25058;DHT22;13057;50.978;11.034;2022-12-07T13:58:43;6.90;99.90
25058;DHT22;13057;50.978;11.034;2022-12-07T14:01:09;6.90;99.90
25058;DHT22;13057;50.978;11.034;2022-12-07T14:03:36;6.80;99.90
25058;DHT22;13057;50.978;11.034;2022-12-07T14:06:14;6.80;99.90
25058;DHT22;13057;50.978;11.034;2022-12-07T14:08:42;6.80;99.90
25058;DHT22;13057;50.978;11.034;2022-12-07T14:11:16;6.70;99.90
25058;DHT22;13057;50.978;11.034;2022-12-07T14:13:59;6.70;99.90
25058;DHT22;13057;50.978;11.034;2022-12-07T14:16:36;6.70;99.90
25058;DHT22;13057;50.978;11.034;2022-12-07T14:19:05;6.70;99.90
25058;DHT22;13057;50.978;11.034;2022-12-07T14:21:33;6.70;99.90
25058;DHT22;13057;50.978;11.034;2022-12-07T14:24:14;6.70;99.90
25058;DHT22;13057;50.978;11.034;2022-12-07T14:26:41;6.70;99.90
25058;DHT22;13057;50.978;11.034;2022-12-07T14:29:30;6.70;99.90
25058;DHT22;13057;50.978;11.034;2022-12-07T14:31:58;6.70;99.90
25058;DHT22;13057;50.978;11.034;2022-12-07T14:34:24;6.70;99.90
25058;DHT22;13057;50.978;11.034;2022-12-07T14:36:50;6.70;99.90
25058;DHT22;13057;50.978;11.034;2022-12-07T14:39:19;6.70;99.90
25058;DHT22;13057;50.978;11.034;2022-12-07T14:41:47;6.60;99.90
25058;DHT22;13057;50.978;11.034;2022-12-07T14:44:20;6.70;99.90
25058;DHT22;13057;50.978;11.034;2022-12-07T14:46:47;6.60;99.90
25058;DHT22;13057;50.978;11.034;2022-12-07T14:49:13;6.70;99.90
25058;DHT22;13057;50.978;11.034;2022-12-07T14:51:40;6.70;99.90
25058;DHT22;13057;50.978;11.034;2022-12-07T14:54:15;6.70;99.90
25058;DHT22;13057;50.978;11.034;2022-12-07T14:56:44;6.60;99.90
25058;DHT22;13057;50.978;11.034;2022-12-07T14:59:12;6.60;99.90
25058;DHT22;13057;50.978;11.034;2022-12-07T15:01:38;6.60;99.90
25058;DHT22;13057;50.978;11.034;2022-12-07T15:04:08;6.50;99.90
25058;DHT22;13057;50.978;11.034;2022-12-07T15:06:38;6.40;99.90
25058;DHT22;13057;50.978;11.034;2022-12-07T15:09:05;6.40;99.90
25058;DHT22;13057;50.978;11.034;2022-12-07T15:11:31;6.40;99.90
25058;DHT22;13057;50.978;11.034;2022-12-07T15:13:57;6.40;99.90
25058;DHT22;13057;50.978;11.034;2022-12-07T15:16:38;6.40;99.90
25058;DHT22;13057;50.978;11.034;2022-12-07T15:19:16;6.30;99.90
25058;DHT22;13057;50.978;11.034;2022-12-07T15:21:43;6.30;99.90
25058;DHT22;13057;50.978;11.034;2022-12-07T15:24:16;6.20;99.90
25058;DHT22;13057;50.978;11.034;2022-12-07T15:26:53;6.20;99.90
25058;DHT22;13057;50.978;11.034;2022-12-07T15:29:41;6.30;99.90
25058;DHT22;13057;50.978;11.034;2022-12-07T15:32:07;6.30;99.90
25058;DHT22;13057;50.978;11.034;2022-12-07T15:34:34;6.30;99.90
25058;DHT22;13057;50.978;11.034;2022-12-07T15:37:00;6.30;99.90
25058;DHT22;13057;50.978;11.034;2022-12-07T15:39:29;6.30;99.90
25058;DHT22;13057;50.978;11.034;2022-12-07T15:42:06;6.30;99.90
25058;DHT22;13057;50.978;11.034;2022-12-07T15:44:32;6.40;99.90
25058;DHT22;13057;50.978;11.034;2022-12-07T15:47:11;6.40;99.90
25058;DHT22;13057;50.978;11.034;2022-12-07T15:52:42;6.40;99.90
25058;DHT22;13057;50.978;11.034;2022-12-07T15:55:10;6.30;99.90
25058;DHT22;13057;50.978;11.034;2022-12-07T15:57:37;6.30;99.90
25058;DHT22;13057;50.978;11.034;2022-12-07T16:00:05;6.30;99.90
25058;DHT22;13057;50.978;11.034;2022-12-07T16:02:32;6.30;99.90
25058;DHT22;13057;50.978;11.034;2022-12-07T16:04:58;6.30;99.90
25058;DHT22;13057;50.978;11.034;2022-12-07T16:07:24;6.30;99.90
25058;DHT22;13057;50.978;11.034;2022-12-07T16:09:50;6.30;99.90
25058;DHT22;13057;50.978;11.034;2022-12-07T16:12:16;6.30;99.90
25058;DHT22;13057;50.978;11.034;2022-12-07T16:14:43;6.30;99.90
25058;DHT22;13057;50.978;11.034;2022-12-07T16:17:10;6.30;99.90
25058;DHT22;13057;50.978;11.034;2022-12-07T16:19:38;6.40;99.90
25058;DHT22;13057;50.978;11.034;2022-12-07T16:22:04;6.40;99.90
25058;DHT22;13057;50.978;11.034;2022-12-07T16:24:31;6.30;99.90
25058;DHT22;13057;50.978;11.034;2022-12-07T16:26:58;6.30;99.90